Time;durP1;ratioP1;P1;durP2;ratioP2;P2;SDS_P1;SDS_P2;PMS_P1;PMS_P2;Temp;Humidity;BMP_temperature;BMP_pressure;BME280_temperature;BME280_humidity;BME280_pressure;Samples;Min_cycle;Max_cycle;Signal;HPM_P1;HPM_P2
2022/11/23 00:02:14;;;;;;;;;;;;;;;;;;5096741;28;19927;-92
2022/11/23 00:04:40;;;;;;;;;;;;;;;;;;5095695;28;19972;-93
2022/11/23 00:07:06;;;;;;;;;;;;;;;;;;5098630;28;19994;-92
2022/11/23 00:09:32;;;;;;;;;;;;;;;;;;5100056;28;19935;-92
2022/11/23 00:11:58;;;;;;;;;;;;;;;;;;5099366;28;19920;-90
2022/11/23 00:14:24;;;;;;;;;;;;;;;;;;5099119;28;19939;-91
2022/11/23 00:16:50;;;;;;;;;;;;;;;;;;5099620;28;20010;-92
2022/11/23 00:19:16;;;;;;;;;;;;;;;;;;5099681;28;19920;-92
2022/11/23 00:21:42;;;;;;;;;;;;;;;;;;5116716;28;20325;-92
2022/11/23 00:24:07;;;;;;;;;;;;;;;;;;5099661;28;20006;-92
2022/11/23 00:26:33;;;;;;;;;;;;;;;;;;5116571;28;19920;-92
2022/11/23 00:28:59;;;;;;;;;;;;;;;;;;5099467;28;19924;-91
2022/11/23 00:31:25;;;;;;;;;;;;;;;;;;5116499;28;19920;-92
2022/11/23 00:33:51;;;;;;;;;;;;;;;;;;5099294;28;19991;-92
2022/11/23 00:36:17;;;;;;;;;;;;;;;;;;5116271;28;19967;-90
2022/11/23 00:38:43;;;;;;;;;;;;;;;;;;5099379;28;20469;-90
2022/11/23 00:41:09;;;;;;;;;;;;;;;;;;5099440;28;20397;-92
2022/11/23 00:43:35;;;;;;;;;;;;;;;;;;5099470;28;20002;-92
2022/11/23 00:46:01;;;;;;;;;;;;;;;;;;5099343;28;19945;-91
2022/11/23 00:48:27;;;;;;;;;;;;;;;;;;5099519;28;19920;-92
2022/11/23 00:50:53;;;;;;;;;;;;;;;;;;5099369;28;19980;-90
2022/11/23 00:53:19;;;;;;;;;;;;;;;;;;5099032;28;20324;-90
2022/11/23 00:55:45;;;;;;;;;;;;;;;;;;5099104;28;19969;-92
2022/11/23 00:58:11;;;;;;;;;;;;;;;;;;5099092;28;19987;-90
2022/11/23 01:00:36;;;;;;;;;;;;;;;;;;5099087;28;20014;-92
2022/11/23 01:03:02;;;;;;;;;;;;;;;;;;5099359;28;19920;-92
2022/11/23 01:05:28;;;;;;;;;;;;;;;;;;5116358;28;19920;-92
2022/11/23 01:07:54;;;;;;;;;;;;;;;;;;5099087;28;19943;-92
2022/11/23 01:10:20;;;;;;;;;;;;;;;;;;5099846;28;20359;-93
2022/11/23 01:12:47;;;;;;;;;;;;;;;;;;5116250;28;20418;-91
2022/11/23 01:15:13;;;;;;;;;;;;;;;;;;5098710;28;19964;-92
2022/11/23 01:17:39;;;;;;;;;;;;;;;;;;5097606;28;19932;-92
2022/11/23 01:20:05;;;;;;;;;;;;;;;;;;5115511;28;19920;-92
2022/11/23 01:22:31;;;;;;;;;;;;;;;;;;5098159;28;19920;-90
2022/11/23 01:24:57;;;;;;;;;;;;;;;;;;5098556;28;19986;-91
2022/11/23 01:27:23;;;;;;;;;;;;;;;;;;5097919;28;19931;-91
2022/11/23 01:29:49;;;;;;;;;;;;;;;;;;5115360;28;19930;-91
2022/11/23 01:32:15;;;;;;;;;;;;;;;;;;5097515;28;20014;-91
2022/11/23 01:34:40;;;;;;;;;;;;;;;;;;5098173;28;19920;-93
2022/11/23 01:37:06;;;;;;;;;;;;;;;;;;5098082;28;19982;-91
2022/11/23 01:39:32;;;;;;;;;;;;;;;;;;5115232;28;19920;-93
2022/11/23 01:41:58;;;;;;;;;;;;;;;;;;5115323;28;19924;-92
2022/11/23 01:44:24;;;;;;;;;;;;;;;;;;5098176;28;19926;-92
2022/11/23 01:46:50;;;;;;;;;;;;;;;;;;5098064;28;19919;-91
2022/11/23 01:49:16;;;;;;;;;;;;;;;;;;5098231;28;20018;-92
2022/11/23 01:51:42;;;;;;;;;;;;;;;;;;5097591;28;19926;-92
2022/11/23 01:54:08;;;;;;;;;;;;;;;;;;5097705;28;19924;-91
2022/11/23 01:56:34;;;;;;;;;;;;;;;;;;5097927;28;19924;-91
2022/11/23 01:59:00;;;;;;;;;;;;;;;;;;5114750;28;19923;-92
2022/11/23 02:01:26;;;;;;;;;;;;;;;;;;5098158;28;19942;-91
2022/11/23 02:03:52;;;;;;;;;;;;;;;;;;5098153;28;19969;-91
2022/11/23 02:06:18;;;;;;;;;;;;;;;;;;5115142;28;19919;-91
2022/11/23 02:08:43;;;;;;;;;;;;;;;;;;5118736;28;19920;-93
2022/11/23 02:11:09;;;;;;;;;;;;;;;;;;5096896;28;19919;-91
2022/11/23 02:13:35;;;;;;;;;;;;;;;;;;5097770;28;19919;-92
2022/11/23 02:16:01;;;;;;;;;;;;;;;;;;5114539;28;19926;-92
2022/11/23 02:18:27;;;;;;;;;;;;;;;;;;5097945;28;19923;-92
2022/11/23 02:20:53;;;;;;;;;;;;;;;;;;5097065;28;19920;-92
2022/11/23 02:23:19;;;;;;;;;;;;;;;;;;5097152;28;19930;-91
2022/11/23 02:25:45;;;;;;;;;;;;;;;;;;5097043;28;19920;-92
2022/11/23 02:28:11;;;;;;;;;;;;;;;;;;5096909;28;20342;-90
2022/11/23 02:30:37;;;;;;;;;;;;;;;;;;5096933;28;19941;-90
2022/11/23 02:33:03;;;;;;;;;;;;;;;;;;5096766;28;19943;-90
2022/11/23 02:35:29;;;;;;;;;;;;;;;;;;5096279;28;19930;-90
2022/11/23 02:37:55;;;;;;;;;;;;;;;;;;5095974;28;19924;-90
2022/11/23 02:40:21;;;;;;;;;;;;;;;;;;5113097;28;19920;-90
2022/11/23 02:42:47;;;;;;;;;;;;;;;;;;5096309;28;20214;-90
2022/11/23 02:45:12;;;;;;;;;;;;;;;;;;5096243;28;19971;-91
2022/11/23 02:47:38;;;;;;;;;;;;;;;;;;5096192;28;20317;-91
2022/11/23 02:50:04;;;;;;;;;;;;;;;;;;5096182;28;19920;-91
2022/11/23 02:52:30;;;;;;;;;;;;;;;;;;5096128;28;19919;-91
2022/11/23 02:54:56;;;;;;;;;;;;;;;;;;5095812;28;19924;-90
2022/11/23 02:57:22;;;;;;;;;;;;;;;;;;5096140;28;19973;-91
2022/11/23 02:59:50;;;;;;;;;;;;;;;;;;5079111;28;20480;-90
2022/11/23 03:02:16;;;;;;;;;;;;;;;;;;5096255;28;19970;-90
2022/11/23 03:04:42;;;;;;;;;;;;;;;;;;5096637;28;20346;-90
2022/11/23 03:07:08;;;;;;;;;;;;;;;;;;5095728;28;19963;-91
2022/11/23 03:09:34;;;;;;;;;;;;;;;;;;5096255;28;19931;-90
2022/11/23 03:12:00;;;;;;;;;;;;;;;;;;5113624;28;20018;-92
2022/11/23 03:14:25;;;;;;;;;;;;;;;;;;5097486;28;20286;-93
2022/11/23 03:16:51;;;;;;;;;;;;;;;;;;5096358;28;19928;-90
2022/11/23 03:19:17;;;;;;;;;;;;;;;;;;5095264;28;19989;-91
2022/11/23 03:21:43;;;;;;;;;;;;;;;;;;5096344;28;19931;-92
2022/11/23 03:24:09;;;;;;;;;;;;;;;;;;5096580;28;19924;-90
2022/11/23 03:26:35;;;;;;;;;;;;;;;;;;5096263;28;20286;-92
2022/11/23 03:29:01;;;;;;;;;;;;;;;;;;5096231;28;20431;-91
2022/11/23 03:31:27;;;;;;;;;;;;;;;;;;5096473;28;19920;-92
2022/11/23 03:33:53;;;;;;;;;;;;;;;;;;5096385;28;19919;-91
2022/11/23 03:36:20;;;;;;;;;;;;;;;;;;5095760;28;19924;-92
2022/11/23 03:38:46;;;;;;;;;;;;;;;;;;5095941;28;19920;-91
2022/11/23 03:41:12;;;;;;;;;;;;;;;;;;5097426;28;19920;-91
2022/11/23 03:43:38;;;;;;;;;;;;;;;;;;5117280;28;20386;-91
2022/11/23 03:46:04;;;;;;;;;;;;;;;;;;5100284;28;19920;-91
2022/11/23 03:48:30;;;;;;;;;;;;;;;;;;5099735;28;19920;-92
2022/11/23 03:50:56;;;;;;;;;;;;;;;;;;5099902;28;19920;-91
2022/11/23 03:53:21;;;;;;;;;;;;;;;;;;5101003;28;19970;-91
2022/11/23 03:55:47;;;;;;;;;;;;;;;;;;5101046;28;19976;-91
2022/11/23 03:58:13;;;;;;;;;;;;;;;;;;5100337;28;19996;-91
2022/11/23 04:00:39;;;;;;;;;;;;;;;;;;5100185;28;20003;-92
2022/11/23 04:03:05;;;;;;;;;;;;;;;;;;5100420;28;19920;-91
2022/11/23 04:05:32;;;;;;;;;;;;;;;;;;5116664;28;19928;-91
2022/11/23 04:07:58;;;;;;;;;;;;;;;;;;5100154;28;19964;-91
2022/11/23 04:10:23;;;;;;;;;;;;;;;;;;5101470;28;20423;-91
2022/11/23 04:12:49;;;;;;;;;;;;;;;;;;5100355;28;19967;-91
2022/11/23 04:15:15;;;;;;;;;;;;;;;;;;5099318;28;19920;-92
2022/11/23 04:17:42;;;;;;;;;;;;;;;;;;5117082;28;19960;-91
2022/11/23 04:20:11;;;;;;;;;;;;;;;;;;5100929;28;19920;-90
2022/11/23 04:22:36;;;;;;;;;;;;;;;;;;5099821;28;19919;-90
2022/11/23 04:25:02;;;;;;;;;;;;;;;;;;5099369;28;19934;-91
2022/11/23 04:27:28;;;;;;;;;;;;;;;;;;5099306;28;19927;-91
2022/11/23 04:29:54;;;;;;;;;;;;;;;;;;5099017;28;19927;-91
2022/11/23 04:32:21;;;;;;;;;;;;;;;;;;5115981;28;20172;-90
2022/11/23 04:34:46;;;;;;;;;;;;;;;;;;5115595;28;19926;-90
2022/11/23 04:37:12;;;;;;;;;;;;;;;;;;5115969;28;19931;-90
2022/11/23 04:39:38;;;;;;;;;;;;;;;;;;5098668;28;19920;-91
2022/11/23 04:42:04;;;;;;;;;;;;;;;;;;5098670;28;19971;-91
2022/11/23 04:44:30;;;;;;;;;;;;;;;;;;5098356;28;19920;-91
2022/11/23 04:46:56;;;;;;;;;;;;;;;;;;5115276;28;20267;-91
2022/11/23 04:49:25;;;;;;;;;;;;;;;;;;5098940;28;19955;-91
2022/11/23 04:51:51;;;;;;;;;;;;;;;;;;5099454;28;19923;-91
2022/11/23 04:54:17;;;;;;;;;;;;;;;;;;5098460;28;19931;-91
2022/11/23 04:56:44;;;;;;;;;;;;;;;;;;5100358;28;19924;-91
2022/11/23 04:59:10;;;;;;;;;;;;;;;;;;5115813;28;19920;-91
2022/11/23 05:01:36;;;;;;;;;;;;;;;;;;5115205;28;20382;-92
2022/11/23 05:04:02;;;;;;;;;;;;;;;;;;5098441;28;19927;-91
2022/11/23 05:06:28;;;;;;;;;;;;;;;;;;5098820;28;19920;-91
2022/11/23 05:08:57;;;;;;;;;;;;;;;;;;5099484;28;19920;-90
2022/11/23 05:11:23;;;;;;;;;;;;;;;;;;5099374;28;20019;-90
2022/11/23 05:13:49;;;;;;;;;;;;;;;;;;5099734;28;20147;-91
2022/11/23 05:16:14;;;;;;;;;;;;;;;;;;5099440;28;19969;-92
2022/11/23 05:18:49;;;;;;;;;;;;;;;;;;5098457;28;19923;-91
2022/11/23 05:21:15;;;;;;;;;;;;;;;;;;5099534;28;19927;-91
2022/11/23 05:23:41;;;;;;;;;;;;;;;;;;5098916;28;19920;-91
2022/11/23 05:26:07;;;;;;;;;;;;;;;;;;5099979;28;19920;-92
2022/11/23 05:28:33;;;;;;;;;;;;;;;;;;5098027;28;19927;-90
2022/11/23 05:30:59;;;;;;;;;;;;;;;;;;5097468;28;19927;-91
2022/11/23 05:33:25;;;;;;;;;;;;;;;;;;5097866;28;19926;-91
2022/11/23 05:35:51;;;;;;;;;;;;;;;;;;5098104;28;20000;-91
2022/11/23 05:38:17;;;;;;;;;;;;;;;;;;5114797;28;20359;-91
2022/11/23 05:40:43;;;;;;;;;;;;;;;;;;5097745;28;19919;-90
2022/11/23 05:43:10;;;;;;;;;;;;;;;;;;5097762;28;19939;-91
2022/11/23 05:45:36;;;;;;;;;;;;;;;;;;5097700;28;19927;-91
2022/11/23 05:48:02;;;;;;;;;;;;;;;;;;5097816;28;19919;-92
2022/11/23 05:50:28;;;;;;;;;;;;;;;;;;5097865;28;19930;-91
2022/11/23 05:52:54;;;;;;;;;;;;;;;;;;5097727;28;19941;-92
2022/11/23 05:55:19;;;;;;;;;;;;;;;;;;5098079;28;19982;-91
2022/11/23 05:57:45;;;;;;;;;;;;;;;;;;5098218;28;19930;-91
2022/11/23 06:00:11;;;;;;;;;;;;;;;;;;5114300;28;19919;-91
2022/11/23 06:02:37;;;;;;;;;;;;;;;;;;5097667;28;19952;-91
2022/11/23 06:05:03;;;;;;;;;;;;;;;;;;5097253;28;20375;-91
2022/11/23 06:07:29;;;;;;;;;;;;;;;;;;5097939;28;19931;-90
2022/11/23 06:09:55;;;;;;;;;;;;;;;;;;5097224;28;20375;-91
2022/11/23 06:12:21;;;;;;;;;;;;;;;;;;5097897;28;19969;-91
2022/11/23 06:14:50;;;;;;;;;;;;;;;;;;5114207;28;19919;-91
2022/11/23 06:17:16;;;;;;;;;;;;;;;;;;5097275;28;19931;-90
2022/11/23 06:19:42;;;;;;;;;;;;;;;;;;5114750;28;19920;-91
2022/11/23 06:22:08;;;;;;;;;;;;;;;;;;5097942;28;19996;-91
2022/11/23 06:24:34;;;;;;;;;;;;;;;;;;5099148;28;19920;-91
2022/11/23 06:26:59;;;;;;;;;;;;;;;;;;5097117;28;20353;-91
2022/11/23 06:29:25;;;;;;;;;;;;;;;;;;5096929;28;20282;-90
2022/11/23 06:31:51;;;;;;;;;;;;;;;;;;5097717;28;19919;-91
2022/11/23 06:34:18;;;;;;;;;;;;;;;;;;5096449;28;19919;-91
2022/11/23 06:36:43;;;;;;;;;;;;;;;;;;5097669;28;19924;-92
2022/11/23 06:39:09;;;;;;;;;;;;;;;;;;5096425;28;20282;-91
2022/11/23 06:41:35;;;;;;;;;;;;;;;;;;5113769;28;19920;-90
2022/11/23 06:44:01;;;;;;;;;;;;;;;;;;5096140;28;19927;-90
2022/11/23 06:46:27;;;;;;;;;;;;;;;;;;5113175;28;19938;-90
2022/11/23 06:48:56;;;;;;;;;;;;;;;;;;5114060;28;20018;-90
2022/11/23 06:51:22;;;;;;;;;;;;;;;;;;5095703;28;19970;-89
2022/11/23 06:53:48;;;;;;;;;;;;;;;;;;5095888;28;20294;-90
2022/11/23 06:56:14;;;;;;;;;;;;;;;;;;5096382;28;19919;-90
2022/11/23 06:58:40;;;;;;;;;;;;;;;;;;5096114;28;19992;-89
2022/11/23 07:01:06;;;;;;;;;;;;;;;;;;5096210;28;20387;-90
2022/11/23 07:03:32;;;;;;;;;;;;;;;;;;5096039;28;20351;-90
2022/11/23 07:05:58;;;;;;;;;;;;;;;;;;5095892;28;19927;-91
2022/11/23 07:08:24;;;;;;;;;;;;;;;;;;5098073;28;19969;-91
2022/11/23 07:10:49;;;;;;;;;;;;;;;;;;5096359;28;19931;-90
2022/11/23 07:13:16;;;;;;;;;;;;;;;;;;5095893;28;20297;-90
2022/11/23 07:15:42;;;;;;;;;;;;;;;;;;5094997;28;20002;-91
2022/11/23 07:18:08;;;;;;;;;;;;;;;;;;5096087;28;19978;-91
2022/11/23 07:20:34;;;;;;;;;;;;;;;;;;5095494;28;19921;-88
2022/11/23 07:23:00;;;;;;;;;;;;;;;;;;5112416;28;19920;-89
2022/11/23 07:25:26;;;;;;;;;;;;;;;;;;5095437;28;19919;-89
2022/11/23 07:27:52;;;;;;;;;;;;;;;;;;5112036;28;20011;-88
2022/11/23 07:30:18;;;;;;;;;;;;;;;;;;5094903;28;20459;-89
2022/11/23 07:32:44;;;;;;;;;;;;;;;;;;5095162;28;20286;-90
2022/11/23 07:35:11;;;;;;;;;;;;;;;;;;5095586;28;19923;-90
2022/11/23 07:37:37;;;;;;;;;;;;;;;;;;5095302;28;19931;-89
2022/11/23 07:40:03;;;;;;;;;;;;;;;;;;5095354;28;19949;-89
2022/11/23 07:42:29;;;;;;;;;;;;;;;;;;5095009;28;19923;-89
2022/11/23 07:44:55;;;;;;;;;;;;;;;;;;5095390;28;19919;-90
2022/11/23 07:47:21;;;;;;;;;;;;;;;;;;5113911;28;19973;-89
2022/11/23 07:49:48;;;;;;;;;;;;;;;;;;5096399;28;19950;-90
2022/11/23 07:52:13;;;;;;;;;;;;;;;;;;5096871;28;19920;-90
2022/11/23 07:54:43;;;;;;;;;;;;;;;;;;5096128;28;19923;-88
2022/11/23 07:57:09;;;;;;;;;;;;;;;;;;5112730;28;19924;-89
2022/11/23 07:59:35;;;;;;;;;;;;;;;;;;5112890;28;19927;-89
2022/11/23 08:02:01;;;;;;;;;;;;;;;;;;5112148;28;19920;-89
2022/11/23 08:04:28;;;;;;;;;;;;;;;;;;5097572;28;20030;-88
2022/11/23 08:06:54;;;;;;;;;;;;;;;;;;5101490;28;19919;-89
2022/11/23 08:09:20;;;;;;;;;;;;;;;;;;5118745;28;19926;-89
2022/11/23 08:11:46;;;;;;;;;;;;;;;;;;5100283;28;19926;-89
2022/11/23 08:14:12;;;;;;;;;;;;;;;;;;5100239;28;19983;-88
2022/11/23 08:16:37;;;;;;;;;;;;;;;;;;5085661;28;19942;-89
2022/11/23 08:19:03;;;;;;;;;;;;;;;;;;5081639;28;19941;-90
2022/11/23 08:21:29;;;;;;;;;;;;;;;;;;5111722;28;20002;-88
2022/11/23 08:23:55;;;;;;;;;;;;;;;;;;5116996;28;19919;-90
2022/11/23 08:26:21;;;;;;;;;;;;;;;;;;5115748;28;19927;-88
2022/11/23 08:28:47;;;;;;;;;;;;;;;;;;5102734;28;19920;-89
2022/11/23 08:31:14;;;;;;;;;;;;;;;;;;5102997;28;19966;-89
2022/11/23 08:33:39;;;;;;;;;;;;;;;;;;5106755;28;19924;-89
2022/11/23 08:36:05;;;;;;;;;;;;;;;;;;5123998;28;19920;-89
2022/11/23 08:38:31;;;;;;;;;;;;;;;;;;5122894;28;19924;-91
2022/11/23 08:40:57;;;;;;;;;;;;;;;;;;5106122;28;20286;-91
2022/11/23 08:43:23;;;;;;;;;;;;;;;;;;5105529;28;19920;-90
2022/11/23 08:45:49;;;;;;;;;;;;;;;;;;5105055;28;19930;-90
2022/11/23 08:48:15;;;;;;;;;;;;;;;;;;5101636;28;20335;-89
2022/11/23 08:50:43;;;;;;;;;;;;;;;;;;5098562;28;19920;-89
2022/11/23 08:53:09;;;;;;;;;;;;;;;;;;5114524;28;20417;-89
2022/11/23 08:55:36;;;;;;;;;;;;;;;;;;5097929;28;19924;-91
2022/11/23 08:58:02;;;;;;;;;;;;;;;;;;5098581;28;19935;-91
2022/11/23 09:00:28;;;;;;;;;;;;;;;;;;5098368;28;19920;-90
2022/11/23 09:02:55;;;;;;;;;;;;;;;;;;5097841;28;20049;-90
2022/11/23 09:05:21;;;;;;;;;;;;;;;;;;5098360;28;20003;-90
2022/11/23 09:07:47;;;;;;;;;;;;;;;;;;5098314;28;19951;-91
2022/11/23 09:10:13;;;;;;;;;;;;;;;;;;5098448;28;19919;-92
2022/11/23 09:12:40;;;;;;;;;;;;;;;;;;5115831;28;20243;-92
2022/11/23 09:15:10;;;;;;;;;;;;;;;;;;5098853;28;19920;-92
2022/11/23 09:17:36;;;;;;;;;;;;;;;;;;5098237;28;19924;-91
2022/11/23 09:20:02;;;;;;;;;;;;;;;;;;5097898;28;19999;-92
2022/11/23 09:22:28;;;;;;;;;;;;;;;;;;5098040;28;19971;-91
2022/11/23 09:24:53;;;;;;;;;;;;;;;;;;5098169;28;19919;-90
2022/11/23 09:27:19;;;;;;;;;;;;;;;;;;5097827;28;19989;-90
2022/11/23 09:29:45;;;;;;;;;;;;;;;;;;5097056;28;20244;-89
2022/11/23 09:32:11;;;;;;;;;;;;;;;;;;5097319;28;19941;-90
2022/11/23 09:34:37;;;;;;;;;;;;;;;;;;5097130;28;19970;-89
2022/11/23 09:37:03;;;;;;;;;;;;;;;;;;5096659;28;19930;-88
2022/11/23 09:39:29;;;;;;;;;;;;;;;;;;5095974;28;19993;-88
2022/11/23 09:41:55;;;;;;;;;;;;;;;;;;5113513;28;19920;-89
2022/11/23 09:44:21;;;;;;;;;;;;;;;;;;5096845;28;19973;-89
2022/11/23 09:46:48;;;;;;;;;;;;;;;;;;5097100;28;19920;-89
2022/11/23 09:49:14;;;;;;;;;;;;;;;;;;5096413;28;19926;-90
2022/11/23 09:51:40;;;;;;;;;;;;;;;;;;5096967;28;20220;-89
2022/11/23 09:54:07;;;;;;;;;;;;;;;;;;5113080;28;19923;-88
2022/11/23 09:56:33;;;;;;;;;;;;;;;;;;5113088;28;19927;-89
2022/11/23 09:58:59;;;;;;;;;;;;;;;;;;5096487;28;19924;-89
2022/11/23 10:01:31;;;;;;;;;;;;;;;;;;5096584;28;20216;-90
2022/11/23 10:03:57;;;;;;;;;;;;;;;;;;5096343;28;19973;-90
2022/11/23 10:06:24;;;;;;;;;;;;;;;;;;5096046;28;20002;-90
2022/11/23 10:08:50;;;;;;;;;;;;;;;;;;5096956;28;19919;-89
2022/11/23 10:11:16;;;;;;;;;;;;;;;;;;5095630;28;20284;-90
2022/11/23 10:13:42;;;;;;;;;;;;;;;;;;5096148;28;19919;-88
2022/11/23 10:16:08;;;;;;;;;;;;;;;;;;5112818;28;20381;-89
2022/11/23 10:18:34;;;;;;;;;;;;;;;;;;5096126;28;19934;-88
2022/11/23 10:21:00;;;;;;;;;;;;;;;;;;5095597;28;19924;-89
2022/11/23 10:23:25;;;;;;;;;;;;;;;;;;5095733;28;19920;-88
2022/11/23 10:25:51;;;;;;;;;;;;;;;;;;5095588;28;19919;-89
2022/11/23 10:28:17;;;;;;;;;;;;;;;;;;5095721;28;19988;-88
2022/11/23 10:30:43;;;;;;;;;;;;;;;;;;5095808;28;19942;-89
2022/11/23 10:33:09;;;;;;;;;;;;;;;;;;5112401;28;19931;-89
2022/11/23 10:35:37;;;;;;;;;;;;;;;;;;5095823;28;19926;-89
2022/11/23 10:38:03;;;;;;;;;;;;;;;;;;5095206;28;19931;-90
2022/11/23 10:40:28;;;;;;;;;;;;;;;;;;5095500;28;19920;-89
2022/11/23 10:42:54;;;;;;;;;;;;;;;;;;5095316;28;19942;-89
2022/11/23 10:45:20;;;;;;;;;;;;;;;;;;5095423;28;20374;-89
2022/11/23 10:47:46;;;;;;;;;;;;;;;;;;5112336;28;19920;-88
2022/11/23 10:50:12;;;;;;;;;;;;;;;;;;5095694;28;19943;-92
2022/11/23 10:52:38;;;;;;;;;;;;;;;;;;5097036;28;19942;-89
2022/11/23 10:55:04;;;;;;;;;;;;;;;;;;5095221;28;19924;-89
2022/11/23 10:57:31;;;;;;;;;;;;;;;;;;5094994;28;19924;-89
2022/11/23 10:59:59;;;;;;;;;;;;;;;;;;5095070;28;19920;-89
2022/11/23 11:02:24;;;;;;;;;;;;;;;;;;5096201;28;19975;-88
2022/11/23 11:04:50;;;;;;;;;;;;;;;;;;5112494;28;19927;-89
2022/11/23 11:07:16;;;;;;;;;;;;;;;;;;5095163;28;19920;-89
2022/11/23 11:09:42;;;;;;;;;;;;;;;;;;5095525;28;19919;-89
2022/11/23 11:12:08;;;;;;;;;;;;;;;;;;5094918;28;20286;-89
2022/11/23 11:14:34;;;;;;;;;;;;;;;;;;5094935;28;20176;-90
2022/11/23 11:17:00;;;;;;;;;;;;;;;;;;5095097;28;19946;-90
2022/11/23 11:19:26;;;;;;;;;;;;;;;;;;5094583;28;20057;-88
2022/11/23 11:21:52;;;;;;;;;;;;;;;;;;5094654;28;19919;-88
2022/11/23 11:24:18;;;;;;;;;;;;;;;;;;5111601;28;20197;-88
2022/11/23 11:26:44;;;;;;;;;;;;;;;;;;5094500;28;19926;-88
2022/11/23 11:29:10;;;;;;;;;;;;;;;;;;5111484;28;20287;-88
2022/11/23 11:31:36;;;;;;;;;;;;;;;;;;5111529;28;19998;-89
2022/11/23 11:34:02;;;;;;;;;;;;;;;;;;5112190;28;19924;-89
2022/11/23 11:36:28;;;;;;;;;;;;;;;;;;5111230;28;20329;-88
2022/11/23 11:38:54;;;;;;;;;;;;;;;;;;5111376;28;19924;-88
2022/11/23 11:41:24;;;;;;;;;;;;;;;;;;5111291;28;19968;-89
2022/11/23 11:43:50;;;;;;;;;;;;;;;;;;5091039;28;19969;-90
2022/11/23 11:46:15;;;;;;;;;;;;;;;;;;5074079;28;20328;-89
2022/11/23 11:48:41;;;;;;;;;;;;;;;;;;5074444;28;19926;-89
2022/11/23 11:51:08;;;;;;;;;;;;;;;;;;5090901;28;19920;-88
2022/11/23 11:53:34;;;;;;;;;;;;;;;;;;5074207;28;19926;-88
2022/11/23 11:56:00;;;;;;;;;;;;;;;;;;5074041;28;19920;-87
2022/11/23 11:58:26;;;;;;;;;;;;;;;;;;5090480;28;19946;-88
2022/11/23 12:00:52;;;;;;;;;;;;;;;;;;5073869;28;19928;-88
2022/11/23 12:03:18;;;;;;;;;;;;;;;;;;5077231;28;19920;-88
2022/11/23 12:05:44;;;;;;;;;;;;;;;;;;5078441;28;20270;-88
2022/11/23 12:08:10;;;;;;;;;;;;;;;;;;5094795;28;19927;-87
2022/11/23 12:10:36;;;;;;;;;;;;;;;;;;5094925;28;19920;-87
2022/11/23 12:13:02;;;;;;;;;;;;;;;;;;5094528;28;19938;-87
2022/11/23 12:15:28;;;;;;;;;;;;;;;;;;5094568;28;20259;-86
2022/11/23 12:17:54;;;;;;;;;;;;;;;;;;5094692;28;19924;-88
2022/11/23 12:20:20;;;;;;;;;;;;;;;;;;5078176;28;19930;-87
2022/11/23 12:22:45;;;;;;;;;;;;;;;;;;5077762;28;20394;-87
2022/11/23 12:25:13;;;;;;;;;;;;;;;;;;5094754;28;20341;-88
2022/11/23 12:27:38;;;;;;;;;;;;;;;;;;5077422;28;19959;-88
2022/11/23 12:30:05;;;;;;;;;;;;;;;;;;5094648;28;20267;-88
2022/11/23 12:32:31;;;;;;;;;;;;;;;;;;5077685;28;19930;-88
2022/11/23 12:34:57;;;;;;;;;;;;;;;;;;5094175;28;19920;-89
2022/11/23 12:37:23;;;;;;;;;;;;;;;;;;5077361;28;19928;-90
2022/11/23 12:39:53;;;;;;;;;;;;;;;;;;5078120;28;19943;-91
2022/11/23 12:42:19;;;;;;;;;;;;;;;;;;5093748;28;19970;-89
2022/11/23 12:44:45;;;;;;;;;;;;;;;;;;5077417;28;19971;-89
2022/11/23 12:47:11;;;;;;;;;;;;;;;;;;5077068;28;19967;-89
2022/11/23 12:49:37;;;;;;;;;;;;;;;;;;5090023;28;19926;-93
2022/11/23 12:52:03;;;;;;;;;;;;;;;;;;5098218;28;19920;-90
2022/11/23 12:54:29;;;;;;;;;;;;;;;;;;5097255;28;19924;-89
2022/11/23 12:56:55;;;;;;;;;;;;;;;;;;5097069;28;19931;-90
2022/11/23 12:59:20;;;;;;;;;;;;;;;;;;5097762;28;20296;-89
2022/11/23 13:01:46;;;;;;;;;;;;;;;;;;5097504;28;20282;-88
2022/11/23 13:04:12;;;;;;;;;;;;;;;;;;5097282;28;19920;-88
2022/11/23 13:06:38;;;;;;;;;;;;;;;;;;5113949;28;19919;-89
2022/11/23 13:09:04;;;;;;;;;;;;;;;;;;5097433;28;19920;-92
2022/11/23 13:11:30;;;;;;;;;;;;;;;;;;5097805;28;20310;-87
2022/11/23 13:13:58;;;;;;;;;;;;;;;;;;5095198;28;20014;-87
2022/11/23 13:16:24;;;;;;;;;;;;;;;;;;5096312;28;20002;-90
2022/11/23 13:18:49;;;;;;;;;;;;;;;;;;5097034;28;20347;-90
2022/11/23 13:21:15;;;;;;;;;;;;;;;;;;5114165;28;19966;-89
2022/11/23 13:23:41;;;;;;;;;;;;;;;;;;5097095;28;19919;-88
2022/11/23 13:26:07;;;;;;;;;;;;;;;;;;5096909;28;19919;-88
2022/11/23 13:28:33;;;;;;;;;;;;;;;;;;5113838;28;19926;-89
2022/11/23 13:30:59;;;;;;;;;;;;;;;;;;5113825;28;20313;-87
2022/11/23 13:33:25;;;;;;;;;;;;;;;;;;5113726;28;19919;-88
2022/11/23 13:35:51;;;;;;;;;;;;;;;;;;5114016;28;19920;-88
2022/11/23 13:38:17;;;;;;;;;;;;;;;;;;5113569;28;19931;-87
2022/11/23 13:40:43;;;;;;;;;;;;;;;;;;5096328;28;19973;-87
2022/11/23 13:43:08;;;;;;;;;;;;;;;;;;5113339;28;19959;-87
2022/11/23 13:45:35;;;;;;;;;;;;;;;;;;5096237;28;19920;-89
2022/11/23 13:48:01;;;;;;;;;;;;;;;;;;5113158;28;19974;-87
2022/11/23 13:50:27;;;;;;;;;;;;;;;;;;5095860;28;19920;-88
2022/11/23 13:52:53;;;;;;;;;;;;;;;;;;5096923;28;20327;-90
2022/11/23 13:55:19;;;;;;;;;;;;;;;;;;5095915;28;19928;-88
2022/11/23 13:57:45;;;;;;;;;;;;;;;;;;5096105;28;19924;-88
2022/11/23 14:00:11;;;;;;;;;;;;;;;;;;5113663;28;19920;-88
2022/11/23 14:02:37;;;;;;;;;;;;;;;;;;5096725;28;19927;-88
2022/11/23 14:05:03;;;;;;;;;;;;;;;;;;5095837;28;19920;-87
2022/11/23 14:07:32;;;;;;;;;;;;;;;;;;5095805;28;19931;-88
2022/11/23 14:09:58;;;;;;;;;;;;;;;;;;5095717;28;19923;-88
2022/11/23 14:12:24;;;;;;;;;;;;;;;;;;5112569;28;20002;-87
2022/11/23 14:14:50;;;;;;;;;;;;;;;;;;5095696;28;19926;-88
2022/11/23 14:17:17;;;;;;;;;;;;;;;;;;5112530;28;19924;-88
2022/11/23 14:19:44;;;;;;;;;;;;;;;;;;5095085;28;19920;-87
2022/11/23 14:22:10;;;;;;;;;;;;;;;;;;5112301;28;19927;-87
2022/11/23 14:24:37;;;;;;;;;;;;;;;;;;5094535;28;20359;-87
2022/11/23 14:27:03;;;;;;;;;;;;;;;;;;5112359;28;19919;-88
2022/11/23 14:29:28;;;;;;;;;;;;;;;;;;5095738;28;19924;-88
2022/11/23 14:31:54;;;;;;;;;;;;;;;;;;5112406;28;20362;-88
2022/11/23 14:34:20;;;;;;;;;;;;;;;;;;5095470;28;20363;-88
2022/11/23 14:36:46;;;;;;;;;;;;;;;;;;5095137;28;19948;-89
2022/11/23 14:39:12;;;;;;;;;;;;;;;;;;5095187;28;20370;-88
2022/11/23 14:41:41;;;;;;;;;;;;;;;;;;5111724;28;19927;-89
2022/11/23 14:44:07;;;;;;;;;;;;;;;;;;5095088;28;19959;-89
2022/11/23 14:46:32;;;;;;;;;;;;;;;;;;5112131;28;19993;-88
2022/11/23 14:48:58;;;;;;;;;;;;;;;;;;5095650;28;20010;-89
2022/11/23 14:51:27;;;;;;;;;;;;;;;;;;5112254;28;20282;-87
2022/11/23 14:53:53;;;;;;;;;;;;;;;;;;5111579;28;19924;-87
2022/11/23 14:56:19;;;;;;;;;;;;;;;;;;5094674;28;19931;-87
2022/11/23 14:58:45;;;;;;;;;;;;;;;;;;5111420;28;19924;-87
2022/11/23 15:01:11;;;;;;;;;;;;;;;;;;5094663;28;20337;-88
2022/11/23 15:03:37;;;;;;;;;;;;;;;;;;5094819;28;19920;-88
2022/11/23 15:06:03;;;;;;;;;;;;;;;;;;5094423;28;19971;-87
2022/11/23 15:08:29;;;;;;;;;;;;;;;;;;5107453;28;19920;-88
2022/11/23 15:10:54;;;;;;;;;;;;;;;;;;5111511;28;19920;-87
2022/11/23 15:13:20;;;;;;;;;;;;;;;;;;5094521;28;19920;-88
2022/11/23 15:15:46;;;;;;;;;;;;;;;;;;5094419;28;19920;-87
2022/11/23 15:18:13;;;;;;;;;;;;;;;;;;5111444;28;20287;-88
2022/11/23 15:20:40;;;;;;;;;;;;;;;;;;5111575;28;19989;-87
2022/11/23 15:23:06;;;;;;;;;;;;;;;;;;5111133;28;19924;-88
2022/11/23 15:25:32;;;;;;;;;;;;;;;;;;5111327;28;19919;-87
2022/11/23 15:27:58;;;;;;;;;;;;;;;;;;5095350;28;19946;-90
2022/11/23 15:30:24;;;;;;;;;;;;;;;;;;5095166;28;19973;-90
2022/11/23 15:32:50;;;;;;;;;;;;;;;;;;5095742;28;19980;-91
2022/11/23 15:35:16;;;;;;;;;;;;;;;;;;5095204;28;19969;-90
2022/11/23 15:37:42;;;;;;;;;;;;;;;;;;5114888;28;19923;-89
2022/11/23 15:40:08;;;;;;;;;;;;;;;;;;5116328;28;19963;-88
2022/11/23 15:42:34;;;;;;;;;;;;;;;;;;5116073;28;19930;-89
2022/11/23 15:45:00;;;;;;;;;;;;;;;;;;5115681;28;19955;-87
2022/11/23 15:47:26;;;;;;;;;;;;;;;;;;5115066;28;19962;-87
2022/11/23 15:49:52;;;;;;;;;;;;;;;;;;5115584;28;19920;-87
2022/11/23 15:52:18;;;;;;;;;;;;;;;;;;5098326;28;19997;-87
2022/11/23 15:54:44;;;;;;;;;;;;;;;;;;5097805;28;20385;-88
2022/11/23 15:57:11;;;;;;;;;;;;;;;;;;5097983;28;20402;-87
2022/11/23 15:59:37;;;;;;;;;;;;;;;;;;5115314;28;19927;-87
2022/11/23 16:02:03;;;;;;;;;;;;;;;;;;5098097;28;19926;-88
2022/11/23 16:04:28;;;;;;;;;;;;;;;;;;5115224;28;19931;-87
2022/11/23 16:06:55;;;;;;;;;;;;;;;;;;5098171;28;20007;-87
2022/11/23 16:09:21;;;;;;;;;;;;;;;;;;5098383;28;19920;-88
2022/11/23 16:11:47;;;;;;;;;;;;;;;;;;5114990;28;20367;-88
2022/11/23 16:14:13;;;;;;;;;;;;;;;;;;5097690;28;19923;-89
2022/11/23 16:16:39;;;;;;;;;;;;;;;;;;5097758;28;20000;-88
2022/11/23 16:19:05;;;;;;;;;;;;;;;;;;5114590;28;20340;-86
2022/11/23 16:21:31;;;;;;;;;;;;;;;;;;5114548;28;19972;-86
2022/11/23 16:23:56;;;;;;;;;;;;;;;;;;5117488;28;19972;-87
2022/11/23 16:26:22;;;;;;;;;;;;;;;;;;5097845;28;20291;-88
2022/11/23 16:28:48;;;;;;;;;;;;;;;;;;5114643;28;19920;-88
2022/11/23 16:31:14;;;;;;;;;;;;;;;;;;5097513;28;19920;-90
2022/11/23 16:33:40;;;;;;;;;;;;;;;;;;5097553;28;20298;-89
2022/11/23 16:36:06;;;;;;;;;;;;;;;;;;5114819;28;19927;-88
2022/11/23 16:38:32;;;;;;;;;;;;;;;;;;5114238;28;19923;-89